createdAt,value
2023-02-18T00:01:46.077Z,10.30
2023-02-18T00:05:01.335Z,10.23
2023-02-18T00:08:14.919Z,10.22
2023-02-18T00:11:29.486Z,10.17
2023-02-18T00:14:43.281Z,10.20
2023-02-18T00:17:56.825Z,10.17
2023-02-18T00:21:13.153Z,10.17
2023-02-18T00:24:26.730Z,10.18
2023-02-18T00:27:40.226Z,10.15
2023-02-18T00:30:54.461Z,10.15
2023-02-18T00:34:09.366Z,10.10
2023-02-18T00:37:22.908Z,10.07
2023-02-18T00:40:36.644Z,10.10
2023-02-18T00:43:50.777Z,10.07
2023-02-18T00:47:05.823Z,10.09
2023-02-18T00:50:19.724Z,10.16
2023-02-18T00:53:33.322Z,10.18
2023-02-18T00:56:46.896Z,10.22
2023-02-18T01:00:00.478Z,10.26
2023-02-18T01:03:14.856Z,10.27
2023-02-18T01:06:29.733Z,10.32
2023-02-18T01:09:43.720Z,10.40
2023-02-18T01:12:57.664Z,10.44
2023-02-18T01:16:12.121Z,10.46
2023-02-18T01:19:25.859Z,10.44
2023-02-18T01:22:39.487Z,10.37
2023-02-18T01:25:53.695Z,10.33
2023-02-18T01:29:07.418Z,10.13
2023-02-18T01:32:20.916Z,10.03
2023-02-18T01:35:36.390Z,9.95
2023-02-18T01:38:50.208Z,9.84
2023-02-18T01:42:03.749Z,9.84
2023-02-18T01:45:46.084Z,9.79
2023-02-18T01:49:01.948Z,9.71
2023-02-18T01:52:17.701Z,9.68
2023-02-18T01:55:31.357Z,9.62
2023-02-18T01:58:45.133Z,9.54
2023-02-18T02:01:59.242Z,9.50
2023-02-18T02:05:15.489Z,9.46
2023-02-18T02:08:29.118Z,9.40
2023-02-18T02:12:08.296Z,9.37
2023-02-18T02:15:32.264Z,9.32
2023-02-18T02:18:56.251Z,9.33
2023-02-18T02:22:39.177Z,9.34
2023-02-18T02:26:22.853Z,9.41
2023-02-18T02:30:05.377Z,9.36
2023-02-18T02:33:54.396Z,9.38
2023-02-18T02:37:11.027Z,9.32
2023-02-18T02:40:28.706Z,9.27
2023-02-18T02:43:47.262Z,9.23
2023-02-18T02:47:05.632Z,9.19
2023-02-18T02:50:22.036Z,9.19
2023-02-18T02:53:37.379Z,9.16
2023-02-18T02:56:50.987Z,9.13
2023-02-18T03:00:10.987Z,9.17
2023-02-18T03:03:59.794Z,9.20
2023-02-18T03:07:24.788Z,9.14
2023-02-18T03:10:45.391Z,9.14
2023-02-18T03:14:11.603Z,9.14
2023-02-18T03:17:28.888Z,9.08
2023-02-18T03:20:46.862Z,9.02
2023-02-18T03:24:03.159Z,9.03
2023-02-18T03:27:20.225Z,8.99
2023-02-18T03:30:38.658Z,8.95
2023-02-18T03:33:54.987Z,8.93
2023-02-18T03:37:09.434Z,8.90
2023-02-18T03:40:24.761Z,8.92
2023-02-18T03:43:39.444Z,8.85
2023-02-18T03:46:52.978Z,8.88
2023-02-18T03:50:06.575Z,8.81
2023-02-18T03:53:21.045Z,8.79
2023-02-18T03:56:34.636Z,8.71
2023-02-18T03:59:48.468Z,8.72
2023-02-18T04:03:02.010Z,8.75
2023-02-18T04:06:16.118Z,8.70
2023-02-18T04:09:29.715Z,8.68
2023-02-18T04:12:43.413Z,8.64
2023-02-18T04:15:57.890Z,8.66
2023-02-18T04:19:11.636Z,8.65
2023-02-18T04:22:25.136Z,8.58
2023-02-18T04:25:39.095Z,8.58
2023-02-18T04:28:52.691Z,8.56
2023-02-18T04:32:06.227Z,8.53
2023-02-18T04:35:19.947Z,8.50
2023-02-18T04:38:33.437Z,8.45
2023-02-18T04:41:46.935Z,8.40
2023-02-18T04:45:00.357Z,8.39
2023-02-18T04:48:14.413Z,8.38
2023-02-18T04:51:28.015Z,8.34
2023-02-18T04:54:41.482Z,8.28
2023-02-18T04:57:55.194Z,8.32
2023-02-18T05:01:09.642Z,8.27
2023-02-18T05:04:25.858Z,8.24
2023-02-18T05:07:39.666Z,8.20
2023-02-18T05:10:53.772Z,8.21
2023-02-18T05:14:07.381Z,8.24
2023-02-18T05:17:20.961Z,8.19
2023-02-18T05:20:34.860Z,8.15
2023-02-18T05:23:48.329Z,8.12
2023-02-18T05:27:01.971Z,8.07
2023-02-18T05:30:17.074Z,8.09
2023-02-18T05:33:30.854Z,8.04
2023-02-18T05:36:44.500Z,8.01
2023-02-18T05:39:58.199Z,7.99
2023-02-18T05:43:11.636Z,7.93
2023-02-18T05:46:25.389Z,7.91
2023-02-18T05:49:40.182Z,7.83
2023-02-18T05:52:54.044Z,7.83
2023-02-18T05:56:08.027Z,7.77
2023-02-18T05:59:21.956Z,7.77
2023-02-18T06:02:35.616Z,7.74
2023-02-18T06:05:49.661Z,7.73
2023-02-18T06:09:03.018Z,7.75
2023-02-18T06:12:16.714Z,7.75
2023-02-18T06:15:32.704Z,7.81
2023-02-18T06:18:46.425Z,7.85
2023-02-18T06:22:01.200Z,7.82
2023-02-18T06:25:15.551Z,7.81
2023-02-18T06:28:29.438Z,8.01
2023-02-18T06:31:43.136Z,8.21
2023-02-18T06:34:56.866Z,8.34
2023-02-18T06:38:10.941Z,8.45
2023-02-18T06:41:24.689Z,8.45
2023-02-18T06:44:38.256Z,8.39
2023-02-18T06:47:52.229Z,8.40
2023-02-18T06:51:07.734Z,8.42
2023-02-18T06:54:21.263Z,8.41
2023-02-18T06:57:34.897Z,8.44
2023-02-18T07:00:50.096Z,8.45
2023-02-18T07:04:15.834Z,8.48
2023-02-18T07:07:29.997Z,8.50
2023-02-18T07:10:43.852Z,8.45
2023-02-18T07:13:57.352Z,8.53
2023-02-18T07:17:13.268Z,8.56
2023-02-18T07:20:27.962Z,8.60
2023-02-18T07:23:41.614Z,8.61
2023-02-18T07:26:55.126Z,8.60
2023-02-18T07:30:09.373Z,8.61
2023-02-18T07:33:23.388Z,8.58
2023-02-18T07:36:37.168Z,8.58
2023-02-18T07:39:55.835Z,8.53
2023-02-18T07:43:11.175Z,8.54
2023-02-18T07:46:29.709Z,8.60
2023-02-18T07:49:43.366Z,8.62
2023-02-18T07:52:58.960Z,8.65
2023-02-18T07:56:14.632Z,8.71
2023-02-18T07:59:30.945Z,8.67
2023-02-18T08:02:44.866Z,8.63
2023-02-18T08:06:02.548Z,8.65
2023-02-18T08:09:17.245Z,8.71
2023-02-18T08:12:31.043Z,8.70
2023-02-18T08:15:45.413Z,8.71
2023-02-18T08:19:01.811Z,8.70
2023-02-18T08:22:19.328Z,8.72
2023-02-18T08:25:34.042Z,8.69
2023-02-18T08:28:47.425Z,8.71
2023-02-18T08:32:02.153Z,8.69
2023-02-18T08:35:18.572Z,8.67
2023-02-18T08:38:33.709Z,8.72
2023-02-18T08:41:49.283Z,8.74
2023-02-18T08:45:05.590Z,8.73
2023-02-18T08:48:23.560Z,8.83
2023-02-18T08:51:37.315Z,8.88
2023-02-18T08:54:53.905Z,8.90
2023-02-18T08:58:09.293Z,8.92
2023-02-18T09:01:29.862Z,8.98
2023-02-18T09:07:52.096Z,9.00
2023-02-18T09:11:08.915Z,8.99
2023-02-18T09:14:23.156Z,8.99
2023-02-18T09:17:42.364Z,9.00
2023-02-18T09:20:59.926Z,8.96
2023-02-18T09:24:16.403Z,8.99
2023-02-18T09:27:30.654Z,8.97
2023-02-18T09:30:46.459Z,8.98
2023-02-18T09:34:02.859Z,9.01
2023-02-18T09:37:16.711Z,9.01
2023-02-18T09:40:33.567Z,9.02
2023-02-18T09:43:50.107Z,9.05
2023-02-18T09:47:10.901Z,9.07
2023-02-18T09:50:28.595Z,9.09
2023-02-18T09:53:42.576Z,9.05
2023-02-18T09:56:57.305Z,9.11
2023-02-18T10:00:16.277Z,9.13
2023-02-18T10:03:31.682Z,9.08
2023-02-18T10:06:46.244Z,9.08
2023-02-18T10:10:02.217Z,9.07
2023-02-18T10:13:20.213Z,9.05
2023-02-18T10:16:34.398Z,9.00
2023-02-18T10:19:48.964Z,9.05
2023-02-18T10:23:06.921Z,9.14
2023-02-18T10:26:22.839Z,9.19
2023-02-18T10:29:36.742Z,9.25
2023-02-18T10:32:51.852Z,9.29
2023-02-18T10:36:18.320Z,9.31
2023-02-18T10:39:54.324Z,9.22
2023-02-18T10:43:14.698Z,9.26
2023-02-18T10:46:33.011Z,9.26
2023-02-18T10:50:04.436Z,9.23
2023-02-18T10:53:21.705Z,9.16
2023-02-18T10:56:44.503Z,9.18
2023-02-18T11:00:15.530Z,9.15
2023-02-18T11:03:30.886Z,9.07
2023-02-18T11:06:49.775Z,9.08
2023-02-18T11:10:05.289Z,9.05
2023-02-18T11:13:21.787Z,8.99
2023-02-18T11:16:44.194Z,9.08
2023-02-18T11:20:03.654Z,9.06
2023-02-18T11:23:28.787Z,9.16
2023-02-18T11:26:44.887Z,9.21
2023-02-18T11:30:01.743Z,9.17
2023-02-18T11:33:19.214Z,9.26
2023-02-18T11:36:35.692Z,9.19
2023-02-18T11:39:57.044Z,9.12
2023-02-18T11:43:17.736Z,9.09
2023-02-18T11:46:33.307Z,9.01
2023-02-18T11:49:54.906Z,8.93
2023-02-18T11:53:37.218Z,8.77
2023-02-18T11:56:54.569Z,8.73
2023-02-18T12:00:09.439Z,8.68
2023-02-18T12:03:26.864Z,8.56
2023-02-18T12:06:43.348Z,8.37
2023-02-18T12:10:00.526Z,8.36
2023-02-18T12:13:19.560Z,8.21
2023-02-18T12:16:38.081Z,8.08
2023-02-18T12:20:09.396Z,8.06
2023-02-18T12:23:27.887Z,8.14
2023-02-18T12:26:45.841Z,8.00
2023-02-18T12:30:24.421Z,8.01
2023-02-18T12:33:42.411Z,8.08
2023-02-18T12:37:07.111Z,8.04
2023-02-18T12:40:33.280Z,8.09
2023-02-18T12:43:53.319Z,8.16
2023-02-18T12:47:23.761Z,8.12
2023-02-18T12:50:47.191Z,8.16
2023-02-18T12:54:23.042Z,8.10
2023-02-18T12:57:44.250Z,8.06
2023-02-18T13:01:31.128Z,8.01
2023-02-18T13:04:59.584Z,8.05
2023-02-18T13:08:42.368Z,8.00
2023-02-18T13:11:57.658Z,8.07
2023-02-18T13:15:15.775Z,7.95
2023-02-18T13:18:34.497Z,7.99
2023-02-18T13:21:48.653Z,7.98
2023-02-18T13:25:03.984Z,7.91
2023-02-18T13:28:21.100Z,7.90
2023-02-18T13:31:41.537Z,7.89
2023-02-18T13:34:59.543Z,7.63
2023-02-18T13:38:25.800Z,7.78
2023-02-18T13:41:44.605Z,7.78
2023-02-18T13:45:30.926Z,7.83
2023-02-18T13:48:50.831Z,7.64
2023-02-18T13:52:06.371Z,7.47
2023-02-18T13:55:28.681Z,7.44
2023-02-18T13:58:51.443Z,7.41
2023-02-18T14:02:16.373Z,7.52
2023-02-18T14:05:38.967Z,7.44
2023-02-18T14:08:53.307Z,7.50
2023-02-18T14:12:37.536Z,7.49
2023-02-18T14:16:03.082Z,7.33
2023-02-18T14:19:34.717Z,7.33
2023-02-18T14:22:55.246Z,7.38
2023-02-18T14:26:16.192Z,7.36
2023-02-18T14:29:39.457Z,7.29
2023-02-18T14:33:01.024Z,7.22
2023-02-18T14:36:19.858Z,7.22
2023-02-18T14:39:49.389Z,7.19
2023-02-18T14:43:08.117Z,7.26
2023-02-18T14:46:28.063Z,7.34
2023-02-18T14:49:47.909Z,7.14
2023-02-18T14:53:03.592Z,7.19
2023-02-18T14:56:29.407Z,7.18
2023-02-18T14:59:50.025Z,7.18
2023-02-18T15:03:08.825Z,7.23
2023-02-18T15:06:36.025Z,7.27
2023-02-18T15:09:58.292Z,7.27
2023-02-18T15:13:14.053Z,7.13
2023-02-18T15:16:31.033Z,7.17
2023-02-18T15:19:47.914Z,7.11
2023-02-18T15:23:02.635Z,7.09
2023-02-18T15:26:21.577Z,6.93
2023-02-18T15:29:37.587Z,6.85
2023-02-18T15:32:54.941Z,6.75
2023-02-18T15:36:13.040Z,6.86
2023-02-18T15:39:26.882Z,6.66
2023-02-18T15:42:45.555Z,6.60
2023-02-18T15:46:01.826Z,6.60
2023-02-18T15:49:15.976Z,6.54
2023-02-18T15:52:37.308Z,6.46
2023-02-18T15:55:54.455Z,6.48
2023-02-18T15:59:28.991Z,6.40
2023-02-18T16:02:43.260Z,6.40
2023-02-18T16:06:16.003Z,6.37
2023-02-18T16:09:37.165Z,6.27
2023-02-18T16:12:56.053Z,6.28
2023-02-18T16:16:16.297Z,6.34
2023-02-18T16:19:32.881Z,6.33
2023-02-18T16:23:00.103Z,6.27
2023-02-18T16:26:36.244Z,6.41
2023-02-18T16:29:54.723Z,6.50
2023-02-18T16:33:09.776Z,6.46
2023-02-18T16:36:31.359Z,6.48
2023-02-18T16:39:46.705Z,6.52
2023-02-18T16:43:01.607Z,6.59
2023-02-18T16:46:18.495Z,6.67
2023-02-18T16:49:32.141Z,6.62
2023-02-18T16:52:46.385Z,6.73
2023-02-18T16:56:01.525Z,6.80
2023-02-18T16:59:15.161Z,6.90
2023-02-18T17:02:29.526Z,7.02
2023-02-18T17:05:44.175Z,7.10
2023-02-18T17:09:00.186Z,7.24
2023-02-18T17:12:14.620Z,7.35
2023-02-18T17:15:37.422Z,7.44
2023-02-18T17:18:51.519Z,7.55
2023-02-18T17:22:05.223Z,7.67
2023-02-18T17:25:29.025Z,7.77
2023-02-18T17:28:40.145Z,7.89
2023-02-18T17:31:54.581Z,8.03
2023-02-18T17:35:08.243Z,8.15
2023-02-18T17:38:24.184Z,8.33
2023-02-18T17:41:37.925Z,8.51
2023-02-18T17:44:51.607Z,8.64
2023-02-18T17:48:06.651Z,8.73
2023-02-18T17:51:27.132Z,8.84
2023-02-18T17:54:41.031Z,8.90
2023-02-18T17:58:00.279Z,9.00
2023-02-18T18:01:15.863Z,9.05
2023-02-18T18:04:29.441Z,9.13
2023-02-18T18:07:43.283Z,9.19
2023-02-18T18:10:59.534Z,9.27
2023-02-18T18:14:14.743Z,9.27
2023-02-18T18:17:28.108Z,9.27
2023-02-18T18:20:42.671Z,9.23
2023-02-18T18:23:56.978Z,9.24
2023-02-18T18:27:10.827Z,9.24
2023-02-18T18:30:25.650Z,9.26
2023-02-18T18:33:41.129Z,9.29
2023-02-18T18:36:54.594Z,9.28
2023-02-18T18:40:08.445Z,9.28
2023-02-18T18:43:25.383Z,9.30
2023-02-18T18:46:40.611Z,9.30
2023-02-18T18:49:54.379Z,9.26
2023-02-18T18:53:10.284Z,9.23
2023-02-18T18:56:25.836Z,9.22
2023-02-18T18:59:39.571Z,9.21
2023-02-18T19:02:53.829Z,9.21
2023-02-18T19:06:07.549Z,9.20
2023-02-18T19:09:21.313Z,9.16
2023-02-18T19:12:46.368Z,9.17
2023-02-18T19:16:00.767Z,9.18
2023-02-18T19:19:14.856Z,9.14
2023-02-18T19:22:28.643Z,9.18
2023-02-18T19:25:42.316Z,9.16
2023-02-18T19:28:56.086Z,9.16
2023-02-18T19:32:09.897Z,9.20
2023-02-18T19:35:24.647Z,9.22
2023-02-18T19:38:38.582Z,9.23
2023-02-18T19:41:52.372Z,9.25
2023-02-18T19:45:05.972Z,9.28
2023-02-18T19:48:21.458Z,9.32
2023-02-18T19:51:36.736Z,9.34
2023-02-18T19:54:53.621Z,9.35
2023-02-18T19:58:09.166Z,9.32
2023-02-18T20:01:24.496Z,9.29
2023-02-18T20:04:38.104Z,9.32
2023-02-18T20:07:52.102Z,9.32
2023-02-18T20:11:06.683Z,9.33
2023-02-18T20:14:23.455Z,9.32
2023-02-18T20:17:37.171Z,9.29
2023-02-18T20:20:55.981Z,9.30
2023-02-18T20:24:13.225Z,9.29
2023-02-18T20:27:27.236Z,9.25
2023-02-18T20:30:41.284Z,9.29
2023-02-18T20:33:59.870Z,9.29
2023-02-18T20:37:13.568Z,9.28
2023-02-18T20:40:27.753Z,9.26
2023-02-18T20:43:41.485Z,9.30
2023-02-18T20:46:56.288Z,9.25
2023-02-18T20:50:10.285Z,9.31
2023-02-18T20:53:24.379Z,9.26
2023-02-18T20:56:38.425Z,9.22
2023-02-18T20:59:52.505Z,9.14
2023-02-18T21:03:06.315Z,9.11
2023-02-18T21:06:22.712Z,9.00
2023-02-18T21:09:36.686Z,8.96
2023-02-18T21:12:51.477Z,8.84
2023-02-18T21:16:05.145Z,8.77
2023-02-18T21:19:22.306Z,8.73
2023-02-18T21:22:36.028Z,8.58
2023-02-18T21:25:50.267Z,8.56
2023-02-18T21:29:06.312Z,8.53
2023-02-18T21:32:20.178Z,8.53
2023-02-18T21:35:34.078Z,8.49
2023-02-18T21:38:51.579Z,8.42
2023-02-18T21:42:07.377Z,8.40
2023-02-18T21:45:21.294Z,8.40
2023-02-18T21:48:49.053Z,8.37
2023-02-18T21:52:19.597Z,8.39
2023-02-18T21:55:33.323Z,8.34
2023-02-18T21:58:47.249Z,8.36
2023-02-18T22:02:01.676Z,8.32
2023-02-18T22:05:17.312Z,8.24
2023-02-18T22:08:30.995Z,8.22
2023-02-18T22:11:45.115Z,8.20
2023-02-18T22:15:04.909Z,8.17
2023-02-18T22:18:18.585Z,8.03
2023-02-18T22:21:34.257Z,8.00
2023-02-18T22:24:48.086Z,7.96
2023-02-18T22:28:01.571Z,7.90
2023-02-18T22:31:17.517Z,7.90
2023-02-18T22:34:31.691Z,7.91
2023-02-18T22:37:45.424Z,7.91
2023-02-18T22:40:59.065Z,7.95
2023-02-18T22:44:15.596Z,7.92
2023-02-18T22:47:29.293Z,7.92
2023-02-18T22:50:43.140Z,7.89
2023-02-18T22:53:56.793Z,7.88
2023-02-18T22:57:10.596Z,7.86
2023-02-18T23:00:25.515Z,7.76
2023-02-18T23:03:40.481Z,7.78
2023-02-18T23:06:55.626Z,7.80
2023-02-18T23:10:10.494Z,7.74
2023-02-18T23:13:24.153Z,7.81
2023-02-18T23:16:39.861Z,7.81
2023-02-18T23:19:55.479Z,7.73
2023-02-18T23:23:08.956Z,7.75
2023-02-18T23:26:22.845Z,7.83
2023-02-18T23:29:39.822Z,7.83
2023-02-18T23:32:54.120Z,7.74
2023-02-18T23:36:18.643Z,7.70
2023-02-18T23:39:32.721Z,7.71
2023-02-18T23:42:46.338Z,7.59
2023-02-18T23:46:00.057Z,7.67
2023-02-18T23:49:13.911Z,7.63
2023-02-18T23:52:27.422Z,7.60
2023-02-18T23:55:41.135Z,7.61
2023-02-18T23:58:57.871Z,7.58
